Time;durP1;ratioP1;P1;durP2;ratioP2;P2;SDS_P1;SDS_P2;PMS_P1;PMS_P2;Temp;Humidity;BMP_temperature;BMP_pressure;BME280_temperature;BME280_humidity;BME280_pressure;Samples;Min_cycle;Max_cycle;Signal;HPM_P1;HPM_P2
2023/03/03 00:00:04;;;;;;;84.07;48.97;;;;;;;-2.24;100.00;102127.88;10390825;28;20124;-76
2023/03/03 00:05:05;;;;;;;91.57;49.95;;;;;;;-2.24;100.00;102126.94;10406424;28;20048;-76
2023/03/03 00:10:06;;;;;;;92.87;52.63;;;;;;;-2.28;100.00;102128.22;10411672;28;20091;-75
2023/03/03 00:15:17;;;;;;;93.00;50.97;;;;;;;-2.13;100.00;102134.25;10447456;28;20151;-76
2023/03/03 00:20:36;;;;;;;106.63;61.33;;;;;;;-1.71;100.00;102138.22;10413420;28;20038;-75
2023/03/03 00:25:37;;;;;;;113.82;62.60;;;;;;;-1.42;100.00;102126.22;10396689;28;20045;-76
2023/03/03 00:30:37;;;;;;;127.90;67.83;;;;;;;-1.28;100.00;102130.38;10434883;28;20154;-75
2023/03/03 00:35:38;;;;;;;137.63;75.53;;;;;;;-1.24;100.00;102135.13;10405677;28;20034;-75
2023/03/03 00:40:39;;;;;;;127.90;73.23;;;;;;;-1.21;100.00;102132.00;10372274;28;20117;-75
2023/03/03 00:45:43;;;;;;;122.40;67.70;;;;;;;-1.14;100.00;102149.97;10405007;28;20132;-76
2023/03/03 00:50:43;;;;;;;126.13;74.05;;;;;;;-1.09;100.00;102155.63;10445027;28;20144;-76
2023/03/03 00:55:45;;;;;;;111.37;64.20;;;;;;;-1.07;100.00;102156.72;10417024;28;20044;-76
2023/03/03 01:00:49;;;;;;;106.38;54.78;;;;;;;-1.06;100.00;102155.97;10414057;28;20481;-76
2023/03/03 01:05:50;;;;;;;110.03;60.42;;;;;;;-1.08;100.00;102168.66;10445648;28;20140;-76
2023/03/03 01:10:52;;;;;;;84.30;48.70;;;;;;;-1.09;100.00;102163.31;10439421;28;20516;-76
2023/03/03 01:15:53;;;;;;;123.07;65.65;;;;;;;-1.06;100.00;102167.19;10415582;28;20068;-76
2023/03/03 01:20:53;;;;;;;98.23;58.67;;;;;;;-1.01;100.00;102177.06;10404759;28;20772;-76
2023/03/03 01:25:54;;;;;;;80.30;50.00;;;;;;;-0.95;100.00;102183.81;10432310;28;20060;-75
2023/03/03 01:30:59;;;;;;;88.07;51.85;;;;;;;-0.96;100.00;102173.38;10419626;28;20041;-75
2023/03/03 01:36:00;;;;;;;76.68;46.92;;;;;;;-0.99;100.00;102173.94;10426434;28;20132;-75
2023/03/03 01:41:01;;;;;;;90.60;51.03;;;;;;;-0.97;100.00;102177.59;10411829;28;20048;-75
2023/03/03 01:46:01;;;;;;;88.43;51.93;;;;;;;-1.03;100.00;102171.75;10410978;28;20512;-75
2023/03/03 01:51:25;;;;;;;85.90;50.00;;;;;;;-1.01;100.00;102166.81;10408350;28;20052;-75
2023/03/03 01:56:25;;;;;;;82.30;46.50;;;;;;;-0.96;100.00;102165.66;10406159;28;20041;-76
2023/03/03 02:01:27;;;;;;;72.20;44.90;;;;;;;-0.93;100.00;102161.78;10402168;28;20485;-75
2023/03/03 02:06:32;;;;;;;86.95;43.10;;;;;;;-0.92;100.00;102170.44;10407165;28;21583;-76
2023/03/03 02:11:33;;;;;;;79.60;47.15;;;;;;;-0.98;100.00;102168.06;10372270;28;20068;-76
2023/03/03 02:16:34;;;;;;;91.60;45.63;;;;;;;-0.98;100.00;102165.47;10421447;28;20045;-75
2023/03/03 02:21:34;;;;;;;74.05;38.33;;;;;;;-0.99;100.00;102158.50;10407571;28;20280;-76
2023/03/03 02:26:38;;;;;;;59.67;38.38;;;;;;;-1.00;100.00;102153.22;10401182;28;20442;-76
2023/03/03 02:31:38;;;;;;;76.97;43.00;;;;;;;-0.97;100.00;102168.97;10419256;28;20477;-75
2023/03/03 02:36:39;;;;;;;70.13;41.38;;;;;;;-0.92;100.00;102166.19;10405448;28;20049;-76
2023/03/03 02:41:48;;;;;;;74.72;40.65;;;;;;;-0.95;100.00;102178.69;10410067;28;20069;-75
2023/03/03 02:46:49;;;;;;;69.72;38.22;;;;;;;-0.97;100.00;102179.25;10416404;28;20037;-75
2023/03/03 02:51:50;;;;;;;62.13;33.92;;;;;;;-1.02;100.00;102173.56;10405599;28;20061;-75
2023/03/03 02:56:51;;;;;;;67.88;36.47;;;;;;;-1.10;100.00;102180.41;10431515;28;20047;-76
2023/03/03 03:01:51;;;;;;;75.30;36.57;;;;;;;-1.03;100.00;102176.88;10432219;28;20132;-75
2023/03/03 03:06:52;;;;;;;71.20;39.60;;;;;;;-1.04;100.00;102188.84;10414816;28;20041;-75
2023/03/03 03:11:52;;;;;;;76.80;40.87;;;;;;;-1.02;100.00;102188.09;10387640;28;20167;-75
2023/03/03 03:16:53;;;;;;;82.20;42.60;;;;;;;-1.01;100.00;102189.94;10432469;28;20136;-76
2023/03/03 03:21:53;;;;;;;71.70;41.90;;;;;;;-0.93;100.00;102195.19;10406109;28;20521;-75
2023/03/03 03:26:54;;;;;;;74.25;38.58;;;;;;;-0.94;100.00;102190.78;10444583;28;20128;-75
2023/03/03 03:31:54;;;;;;;51.03;27.17;;;;;;;-0.84;100.00;102205.63;10399598;28;20489;-76
2023/03/03 03:36:55;;;;;;;70.43;43.55;;;;;;;-0.85;100.00;102198.66;10417487;28;20045;-76
2023/03/03 03:41:55;;;;;;;78.72;43.60;;;;;;;-0.92;100.00;102199.59;10410322;28;20116;-76
2023/03/03 03:46:56;;;;;;;77.30;37.50;;;;;;;-1.00;100.00;102196.91;10450873;28;20461;-76
2023/03/03 03:51:56;;;;;;;79.20;42.35;;;;;;;-1.10;100.00;102211.25;10412537;28;20128;-76
2023/03/03 03:56:57;;;;;;;83.82;41.60;;;;;;;-1.14;100.00;102214.22;10415561;28;20072;-76
2023/03/03 04:01:57;;;;;;;75.43;43.65;;;;;;;-1.18;100.00;102201.75;10411109;28;20084;-75
2023/03/03 04:06:58;;;;;;;90.32;48.72;;;;;;;-1.19;100.00;102203.38;10423893;28;20055;-75
2023/03/03 04:11:58;;;;;;;92.28;42.13;;;;;;;-1.19;100.00;102205.94;10403822;28;20124;-76
2023/03/03 04:16:59;;;;;;;80.70;38.97;;;;;;;-1.26;100.00;102202.50;10402961;28;20180;-76
2023/03/03 04:21:59;;;;;;;77.80;43.20;;;;;;;-1.28;100.00;102207.44;10409224;28;20043;-75
2023/03/03 04:27:00;;;;;;;79.97;42.10;;;;;;;-1.32;100.00;102210.38;10410510;28;20396;-76
2023/03/03 04:32:00;;;;;;;81.03;40.83;;;;;;;-1.34;100.00;102217.00;10435296;28;20111;-74
2023/03/03 04:37:01;;;;;;;80.07;45.97;;;;;;;-1.35;100.00;102223.81;10408605;28;20477;-76
2023/03/03 04:42:02;;;;;;;76.83;40.03;;;;;;;-1.35;100.00;102223.81;10383717;28;20037;-75
2023/03/03 04:47:03;;;;;;;112.18;46.42;;;;;;;-1.34;100.00;102220.50;10413401;28;20029;-75
2023/03/03 04:52:03;;;;;;;78.93;43.40;;;;;;;-1.30;100.00;102224.34;10412200;28;20153;-76
2023/03/03 04:57:04;;;;;;;87.97;41.08;;;;;;;-1.28;100.00;102225.44;10423107;28;20040;-76
2023/03/03 05:02:04;;;;;;;103.20;48.07;;;;;;;-1.31;100.00;102235.34;10443006;28;20525;-76
2023/03/03 05:07:05;;;;;;;94.40;45.30;;;;;;;-1.35;100.00;102222.88;10424790;28;20040;-76
2023/03/03 05:12:06;;;;;;;90.23;47.63;;;;;;;-1.38;100.00;102225.09;10412392;28;20396;-76
2023/03/03 05:17:06;;;;;;;92.90;44.10;;;;;;;-1.40;100.00;102230.06;10412640;28;20072;-76
2023/03/03 05:22:07;;;;;;;83.27;44.87;;;;;;;-1.40;100.00;102227.50;10452998;28;20068;-76
2023/03/03 05:27:07;;;;;;;92.88;41.55;;;;;;;-1.31;100.00;102235.34;10397416;28;20049;-76
2023/03/03 05:32:08;;;;;;;99.47;48.70;;;;;;;-1.32;100.00;102241.22;10385020;28;20048;-75
2023/03/03 05:37:09;;;;;;;92.13;44.23;;;;;;;-1.31;100.00;102237.00;10410802;28;20080;-75
2023/03/03 05:42:11;;;;;;;85.87;43.70;;;;;;;-1.22;100.00;102246.69;10411205;28;20065;-76
2023/03/03 05:47:12;;;;;;;98.60;44.85;;;;;;;-1.24;100.00;102242.13;10360931;28;20045;-75
2023/03/03 05:52:13;;;;;;;84.73;45.97;;;;;;;-1.26;100.00;102241.03;10439655;28;20044;-75
2023/03/03 05:57:14;;;;;;;90.23;45.93;;;;;;;-1.30;100.00;102243.97;10425614;28;20052;-75
2023/03/03 06:02:14;;;;;;;107.40;47.53;;;;;;;-1.31;100.00;102245.63;10440663;28;20095;-76
2023/03/03 06:07:15;;;;;;;90.60;46.42;;;;;;;-1.25;100.00;102256.63;10413510;28;20140;-75
2023/03/03 06:12:16;;;;;;;96.10;44.92;;;;;;;-1.24;100.00;102268.72;10420704;28;20136;-75
2023/03/03 06:17:16;;;;;;;87.60;46.17;;;;;;;-1.27;100.00;102263.22;10421946;28;20587;-75
2023/03/03 06:22:17;;;;;;;98.37;44.57;;;;;;;-1.23;100.00;102264.53;10406124;28;20071;-75
2023/03/03 06:27:18;;;;;;;91.87;45.83;;;;;;;-1.24;100.00;102266.16;10420915;28;20382;-76
2023/03/03 06:32:18;;;;;;;86.57;43.40;;;;;;;-1.28;100.00;102283.63;10411646;28;20123;-76
2023/03/03 06:37:19;;;;;;;88.10;50.47;;;;;;;-1.21;100.00;102299.00;10431652;28;20041;-75
2023/03/03 06:42:19;;;;;;;88.43;46.53;;;;;;;-1.14;100.00;102290.34;10378409;28;20042;-77
2023/03/03 06:47:21;;;;;;;84.55;44.80;;;;;;;-1.19;100.00;102289.84;10363199;28;20074;-76
2023/03/03 06:52:24;;;;;;;85.70;48.07;;;;;;;-1.11;100.00;102301.00;10359720;28;20452;-75
2023/03/03 06:57:32;;;;;;;89.65;45.25;;;;;;;-1.14;100.00;102301.56;10400538;28;20041;-76
2023/03/03 07:02:32;;;;;;;81.43;42.95;;;;;;;-0.98;100.00;102314.56;10408638;28;20041;-76
2023/03/03 07:07:33;;;;;;;62.28;36.22;;;;;;;-0.93;100.00;102321.16;10391866;28;20068;-75
2023/03/03 07:12:33;;;;;;;69.35;36.47;;;;;;;-0.92;100.00;102322.97;10424246;28;20123;-76
2023/03/03 07:17:33;;;;;;;88.82;47.45;;;;;;;-0.93;100.00;102318.56;10412394;28;20129;-76
2023/03/03 07:22:34;;;;;;;73.30;40.28;;;;;;;-0.84;100.00;102329.03;10420690;28;20128;-76
2023/03/03 07:27:34;;;;;;;66.00;34.20;;;;;;;-0.71;100.00;102327.91;10409189;28;20541;-75
2023/03/03 07:32:42;;;;;;;72.53;41.55;;;;;;;-0.68;100.00;102324.00;10431046;28;20178;-75
2023/03/03 07:37:44;;;;;;;56.65;37.75;;;;;;;-0.61;100.00;102323.09;10401317;28;20412;-75
2023/03/03 07:42:44;;;;;;;58.08;32.50;;;;;;;-0.58;100.00;102327.66;10408979;28;20037;-75
2023/03/03 07:47:45;;;;;;;53.73;34.27;;;;;;;-0.52;100.00;102344.72;10410569;28;20133;-75
2023/03/03 07:52:57;;;;;;;53.65;31.58;;;;;;;-0.42;100.00;102346.69;10381483;28;20116;-75
2023/03/03 07:58:05;;;;;;;55.60;30.08;;;;;;;-0.46;100.00;102344.50;10375227;28;20052;-75
2023/03/03 08:03:16;;;;;;;50.55;29.17;;;;;;;-0.38;100.00;102354.03;10398363;28;20045;-75
2023/03/03 08:08:32;;;;;;;47.05;29.75;;;;;;;-0.23;100.00;102359.09;10446335;28;20038;-75
2023/03/03 08:13:32;;;;;;;48.95;31.13;;;;;;;-0.17;100.00;102360.75;10437361;28;20509;-75
2023/03/03 08:18:46;;;;;;;54.65;29.27;;;;;;;0.02;100.00;102364.50;10415615;28;20045;-75
2023/03/03 08:23:50;;;;;;;49.35;29.83;;;;;;;0.09;100.00;102365.38;10386106;28;20056;-75
2023/03/03 08:28:51;;;;;;;52.10;27.58;;;;;;;0.12;100.00;102368.31;10425933;28;20087;-75
2023/03/03 08:33:52;;;;;;;47.20;26.60;;;;;;;0.11;100.00;102378.41;10416068;28;20669;-75
2023/03/03 08:38:52;;;;;;;46.03;25.42;;;;;;;0.15;100.00;102383.16;10407761;28;20442;-75
2023/03/03 08:43:53;;;;;;;47.47;26.15;;;;;;;0.36;100.00;102384.72;10365905;28;20120;-75
2023/03/03 08:48:53;;;;;;;44.65;25.23;;;;;;;0.42;100.00;102382.81;10418895;28;20132;-76
2023/03/03 08:53:54;;;;;;;45.80;26.05;;;;;;;0.58;100.00;102385.44;10425897;28;20128;-75
2023/03/03 08:58:54;;;;;;;41.55;23.05;;;;;;;0.55;100.00;102390.25;10407181;28;20155;-76
2023/03/03 09:03:55;;;;;;;41.42;22.20;;;;;;;0.49;100.00;102405.03;10418534;28;20113;-76
2023/03/03 09:08:55;;;;;;;41.72;24.92;;;;;;;0.78;100.00;102401.31;10397260;28;20042;-75
2023/03/03 09:14:32;;;;;;;32.97;21.83;;;;;;;0.86;100.00;102404.00;10364396;28;20057;-75
2023/03/03 09:19:34;;;;;;;35.10;19.23;;;;;;;0.83;100.00;102408.81;10401608;28;20045;-75
2023/03/03 09:24:35;;;;;;;34.30;20.90;;;;;;;0.79;100.00;102405.72;10465765;28;20045;-75
2023/03/03 09:29:36;;;;;;;42.63;21.33;;;;;;;0.81;100.00;102410.28;10416582;28;20044;-76
2023/03/03 09:34:37;;;;;;;36.00;18.95;;;;;;;0.99;100.00;102408.88;10414704;28;20065;-75
2023/03/03 09:39:38;;;;;;;36.22;19.20;;;;;;;0.99;100.00;102408.88;10418551;28;20509;-75
2023/03/03 09:44:57;;;;;;;34.92;18.50;;;;;;;1.16;100.00;102415.88;10423219;28;20049;-75
2023/03/03 09:50:15;;;;;;;41.15;21.15;;;;;;;1.24;100.00;102414.16;10418758;28;20509;-75
2023/03/03 09:55:24;;;;;;;29.98;20.10;;;;;;;1.33;100.00;102410.75;10403339;28;20061;-75
2023/03/03 10:00:24;;;;;;;33.15;17.73;;;;;;;1.34;100.00;102417.75;10419604;28;20029;-75
2023/03/03 10:05:52;;;;;;;35.53;21.77;;;;;;;1.46;100.00;102425.16;10403808;28;20437;-76
2023/03/03 10:11:14;;;;;;;30.95;17.17;;;;;;;1.55;100.00;102426.91;10434461;28;20044;-76
2023/03/03 10:16:17;;;;;;;;;;;;;;;1.63;100.00;102431.25;10408498;28;20161;-76
2023/03/03 10:21:29;;;;;;;36.83;18.10;;;;;;;1.79;100.00;102435.47;10402991;28;20297;-75
2023/03/03 10:26:53;;;;;;;32.53;16.47;;;;;;;1.93;100.00;102432.72;10406578;28;20068;-76
2023/03/03 10:32:34;;;;;;;30.25;17.38;;;;;;;1.88;100.00;102428.72;10405186;28;20462;-76
2023/03/03 10:37:41;;;;;;;40.35;19.65;;;;;;;1.88;100.00;102428.72;10381747;28;20508;-76
2023/03/03 10:43:19;;;;;;;29.85;20.10;;;;;;;2.03;100.00;102432.06;10400769;28;20040;-74
2023/03/03 10:49:01;;;;;;;35.00;20.13;;;;;;;2.45;100.00;102429.63;10400151;28;20669;-76
2023/03/03 10:54:29;;;;;;;35.40;19.08;;;;;;;2.54;100.00;102427.09;10412890;28;20049;-76
2023/03/03 11:00:03;;;;;;;40.08;17.55;;;;;;;2.70;100.00;102423.50;10401544;28;20045;-76
2023/03/03 11:05:25;;;;;;;26.67;14.63;;;;;;;2.59;100.00;102415.56;10422645;28;20055;-76
2023/03/03 11:10:59;;;;;;;36.95;20.55;;;;;;;2.59;100.00;102414.66;10410589;28;20057;-76
2023/03/03 11:16:28;;;;;;;28.33;17.30;;;;;;;2.72;100.00;102422.94;10424013;28;20041;-76
2023/03/03 11:21:38;;;;;;;31.95;17.90;;;;;;;2.67;100.00;102418.03;10451603;28;20493;-75
2023/03/03 11:26:41;;;;;;;31.40;16.33;;;;;;;2.92;100.00;102406.88;10424522;28;20440;-75
2023/03/03 11:31:59;;;;;;;28.55;16.17;;;;;;;3.06;100.00;102410.91;10468528;28;20046;-75
2023/03/03 11:37:15;;;;;;;31.08;16.33;;;;;;;3.43;100.00;102410.25;10464390;28;20052;-75
2023/03/03 11:42:35;;;;;;;30.35;16.92;;;;;;;3.72;100.00;102402.81;10449264;28;20132;-75
2023/03/03 11:47:43;;;;;;;27.75;14.10;;;;;;;3.75;100.00;102404.81;10446111;28;20047;-75
2023/03/03 11:53:21;;;;;;;26.02;14.45;;;;;;;3.69;100.00;102406.78;10407207;28;20039;-75
2023/03/03 11:58:33;;;;;;;30.85;17.75;;;;;;;3.73;100.00;102403.75;10401855;28;20464;-75
2023/03/03 12:03:39;;;;;;;31.05;16.65;;;;;;;3.92;100.00;102391.84;10386893;28;20037;-75
2023/03/03 12:09:04;;;;;;;34.25;16.95;;;;;;;4.06;100.00;102389.72;10370898;28;20044;-75
2023/03/03 12:14:30;;;;;;;30.75;17.48;;;;;;;3.97;100.00;102388.03;10411650;28;20045;-76
2023/03/03 12:19:34;;;;;;;32.53;17.80;;;;;;;3.98;100.00;102381.16;10439387;28;20063;-77
2023/03/03 12:24:43;;;;;;;27.13;18.52;;;;;;;3.83;100.00;102380.59;10414243;28;20049;-76
2023/03/03 12:30:13;;;;;;;26.85;17.55;;;;;;;3.99;100.00;102383.00;10423387;28;20042;-76
2023/03/03 12:35:27;;;;;;;32.75;16.83;;;;;;;4.20;100.00;102373.84;10446899;27;20059;-76
2023/03/03 12:40:32;;;;;;;26.45;16.60;;;;;;;4.25;100.00;102377.78;10389113;28;20080;-76
2023/03/03 12:45:45;;;;;;;26.55;17.10;;;;;;;4.52;100.00;102372.53;10413346;28;20110;-74
2023/03/03 12:50:50;;;;;;;38.83;22.50;;;;;;;5.02;100.00;102379.81;10423779;28;20045;-75
2023/03/03 12:56:08;;;;;;;35.05;17.35;;;;;;;7.58;100.00;102360.78;10453704;28;20064;-75
2023/03/03 13:01:18;;;;;;;24.63;13.70;;;;;;;10.95;85.08;102348.13;10403211;28;20045;-75
2023/03/03 13:06:30;;;;;;;25.45;12.43;;;;;;;11.75;75.47;102336.91;10446981;28;20051;-75
2023/03/03 13:11:34;;;;;;;22.05;11.82;;;;;;;12.91;64.95;102345.13;10403025;28;20044;-74
2023/03/03 13:16:38;;;;;;;21.83;12.82;;;;;;;12.85;61.40;102339.50;10410305;28;20052;-74
2023/03/03 13:21:40;;;;;;;27.90;14.05;;;;;;;12.61;63.12;102331.91;10426246;28;20549;-74
2023/03/03 13:26:48;;;;;;;23.40;13.20;;;;;;;12.03;62.68;102333.50;10372892;28;20643;-75
2023/03/03 13:31:57;;;;;;;23.90;13.38;;;;;;;12.38;63.85;102326.13;10402891;28;20037;-75
2023/03/03 13:37:04;;;;;;;25.83;12.88;;;;;;;12.55;61.36;102323.66;10404895;28;20516;-75
2023/03/03 13:42:10;;;;;;;19.65;12.05;;;;;;;12.81;60.81;102327.00;10437868;28;20044;-76
2023/03/03 13:47:11;;;;;;;22.30;14.05;;;;;;;12.85;60.34;102316.75;10440133;28;20464;-75
2023/03/03 13:52:14;;;;;;;22.83;13.05;;;;;;;13.05;60.39;102311.81;10440893;28;20052;-75
2023/03/03 13:57:26;;;;;;;27.20;14.68;;;;;;;13.49;57.21;102312.69;10433419;28;20040;-75
2023/03/03 14:02:51;;;;;;;20.92;12.57;;;;;;;12.43;58.25;102310.63;10415157;28;20049;-75
2023/03/03 14:08:06;;;;;;;21.35;13.20;;;;;;;12.48;58.04;102302.25;10426723;28;20480;-75
2023/03/03 14:13:07;;;;;;;22.30;13.00;;;;;;;10.91;63.32;102309.44;10423870;28;20041;-75
2023/03/03 14:18:24;;;;;;;24.35;13.02;;;;;;;11.72;61.92;102299.09;10422894;28;20052;-75
2023/03/03 14:23:40;;;;;;;25.52;13.25;;;;;;;11.85;60.68;102298.16;10429754;28;20515;-75
2023/03/03 14:28:45;;;;;;;27.95;15.90;;;;;;;11.20;62.48;102292.19;10420595;28;20508;-75
2023/03/03 14:34:13;;;;;;;24.60;12.30;;;;;;;10.10;67.60;102293.28;10383118;28;20477;-76
2023/03/03 14:39:49;;;;;;;25.02;11.70;;;;;;;9.61;71.11;102287.06;10417875;28;20038;-76
2023/03/03 14:44:53;;;;;;;22.20;13.13;;;;;;;10.67;67.48;102280.72;10400118;28;20052;-75
2023/03/03 14:49:58;;;;;;;21.13;12.50;;;;;;;10.64;69.67;102271.75;10418265;28;20045;-76
2023/03/03 14:55:03;;;;;;;21.30;12.43;;;;;;;11.22;65.14;102264.38;10390263;28;20096;-73
2023/03/03 15:00:13;;;;;;;20.70;12.73;;;;;;;11.40;65.30;102267.28;10427031;28;20112;-73
2023/03/03 15:05:26;;;;;;;20.50;13.07;;;;;;;12.40;63.99;102263.19;10407407;28;20489;-73
2023/03/03 15:10:34;;;;;;;20.77;14.02;;;;;;;12.19;63.10;102256.69;10399113;28;20029;-75
2023/03/03 15:15:35;;;;;;;18.38;13.02;;;;;;;11.78;61.89;102248.75;10387458;28;20037;-75
2023/03/03 15:21:04;;;;;;;22.13;16.15;;;;;;;11.60;62.18;102258.16;10433423;28;20132;-74
2023/03/03 15:26:24;;;;;;;19.58;12.88;;;;;;;11.00;65.92;102256.75;10406979;28;20038;-74
2023/03/03 15:31:45;;;;;;;22.80;12.30;;;;;;;11.09;63.37;102246.00;10402567;28;20053;-73
2023/03/03 15:36:50;;;;;;;21.33;12.43;;;;;;;9.53;69.68;102249.88;10442945;28;20050;-74
2023/03/03 15:42:09;;;;;;;21.27;11.18;;;;;;;8.73;72.05;102252.59;10419537;28;20072;-74
2023/03/03 15:47:40;;;;;;;21.50;10.65;;;;;;;7.72;82.14;102242.03;10434214;28;20618;-73
2023/03/03 15:52:55;;;;;;;25.83;12.43;;;;;;;7.38;92.33;102239.28;10367558;28;20060;-73
2023/03/03 15:58:09;;;;;;;22.25;13.60;;;;;;;6.90;100.00;102241.41;10424457;28;20095;-74
2023/03/03 16:03:16;;;;;;;25.13;13.43;;;;;;;6.47;100.00;102249.09;10429446;28;20038;-74
2023/03/03 16:08:20;;;;;;;20.63;11.65;;;;;;;6.06;100.00;102244.69;10402847;28;20505;-74
2023/03/03 16:13:45;;;;;;;28.17;11.77;;;;;;;5.65;100.00;102245.41;10428072;28;20106;-74
2023/03/03 16:18:58;;;;;;;18.63;11.45;;;;;;;5.19;100.00;102260.31;10408826;28;20408;-74
2023/03/03 16:24:36;;;;;;;21.58;11.07;;;;;;;4.79;100.00;102270.50;10395849;28;20102;-74
2023/03/03 16:30:03;;;;;;;25.05;14.05;;;;;;;4.47;100.00;102260.63;10412591;28;20084;-73
2023/03/03 16:35:13;;;;;;;20.60;13.60;;;;;;;4.09;100.00;102260.47;10425936;28;20078;-73
2023/03/03 16:40:37;;;;;;;18.75;11.30;;;;;;;3.86;100.00;102256.56;10390861;28;20042;-73
2023/03/03 16:45:38;;;;;;;24.33;10.85;;;;;;;3.61;100.00;102258.41;10427220;28;20489;-73
2023/03/03 16:51:00;;;;;;;21.95;12.77;;;;;;;3.06;100.00;102259.94;10405766;28;20037;-73
2023/03/03 16:56:27;;;;;;;22.13;11.35;;;;;;;2.50;100.00;102272.44;10446042;28;20118;-73
2023/03/03 17:01:46;;;;;;;25.77;15.02;;;;;;;1.98;100.00;102276.59;10407323;28;20132;-73
2023/03/03 17:06:53;;;;;;;21.73;13.07;;;;;;;1.64;100.00;102287.63;10385385;28;20038;-73
2023/03/03 17:12:06;;;;;;;21.92;12.95;;;;;;;1.34;100.00;102289.66;10380135;28;20120;-73
2023/03/03 17:17:38;;;;;;;20.65;13.57;;;;;;;1.09;100.00;102288.69;10362032;28;20046;-73
2023/03/03 17:23:06;;;;;;;21.58;13.55;;;;;;;0.84;100.00;102294.63;10416624;28;20033;-74
2023/03/03 17:28:19;;;;;;;22.77;12.40;;;;;;;0.55;100.00;102300.06;10428329;28;20583;-73
2023/03/03 17:33:19;;;;;;;21.70;13.40;;;;;;;0.35;100.00;102315.91;10399304;28;20532;-76
2023/03/03 17:38:29;;;;;;;24.55;13.73;;;;;;;0.29;100.00;102316.13;10417171;28;20041;-76
2023/03/03 17:43:41;;;;;;;28.88;13.90;;;;;;;0.45;100.00;102322.97;10400655;28;20501;-76
2023/03/03 17:48:53;;;;;;;29.27;12.85;;;;;;;0.62;100.00;102323.94;10401079;28;20034;-76
2023/03/03 17:54:06;;;;;;;19.95;13.63;;;;;;;0.82;100.00;102327.06;10419719;28;20046;-75
2023/03/03 17:59:54;;;;;;;26.65;15.25;;;;;;;0.92;100.00;102335.81;10469254;28;20568;-76
2023/03/03 18:05:25;;;;;;;21.73;12.02;;;;;;;0.99;100.00;102331.53;10371808;28;20048;-75
2023/03/03 18:10:41;;;;;;;22.35;13.25;;;;;;;1.05;100.00;102335.50;10430391;28;20044;-76
2023/03/03 18:16:09;;;;;;;19.73;12.32;;;;;;;1.12;100.00;102332.84;10428966;28;20049;-77
2023/03/03 18:21:25;;;;;;;19.70;14.75;;;;;;;1.28;100.00;102336.34;10438567;28;20394;-76
2023/03/03 18:26:31;;;;;;;27.50;15.07;;;;;;;1.28;100.00;102332.84;10422296;28;20040;-77
2023/03/03 18:31:48;;;;;;;20.33;14.55;;;;;;;1.39;100.00;102341.78;10426402;28;20489;-76
2023/03/03 18:36:52;;;;;;;26.40;15.95;;;;;;;1.40;100.00;102344.50;10442395;28;20040;-76
2023/03/03 18:42:03;;;;;;;25.25;15.63;;;;;;;1.45;100.00;102343.31;10453697;28;20040;-76
2023/03/03 18:47:04;;;;;;;26.50;12.93;;;;;;;1.49;100.00;102349.75;10425973;28;20072;-77
2023/03/03 18:52:26;;;;;;;23.52;12.55;;;;;;;1.59;100.00;102351.66;10429400;28;20040;-76
2023/03/03 18:57:27;;;;;;;;;;;;;;;1.56;100.00;102357.41;10427059;28;20516;-78
2023/03/03 19:02:36;;;;;;;21.20;14.77;;;;;;;1.57;100.00;102356.66;10449861;28;19920;-77
2023/03/03 19:07:40;;;;;;;20.15;12.02;;;;;;;1.58;100.00;102366.22;10407485;28;20121;-76
2023/03/03 19:12:53;;;;;;;21.33;13.85;;;;;;;1.63;100.00;102361.53;10409412;28;20044;-76
2023/03/03 19:17:58;;;;;;;25.35;15.73;;;;;;;1.67;100.00;102370.56;10414249;28;20037;-76
2023/03/03 19:23:18;;;;;;;19.42;12.18;;;;;;;1.71;100.00;102357.22;10416342;28;20505;-76
2023/03/03 19:28:54;;;;;;;19.88;13.68;;;;;;;1.74;100.00;102365.31;10420580;28;20049;-76
2023/03/03 19:34:38;;;;;;;29.27;12.68;;;;;;;1.74;100.00;102371.34;10423615;28;20404;-75
2023/03/03 19:39:53;;;;;;;33.53;14.63;;;;;;;1.78;100.00;102370.03;10341930;28;20065;-75
2023/03/03 19:45:07;;;;;;;31.98;15.20;;;;;;;1.73;100.00;102378.97;10422213;28;20068;-75
2023/03/03 19:50:26;;;;;;;28.50;11.85;;;;;;;1.81;100.00;102369.44;10386694;28;20096;-75
2023/03/03 19:55:44;;;;;;;21.33;14.80;;;;;;;1.85;100.00;102372.53;10397784;28;20045;-76
2023/03/03 20:00:46;;;;;;;24.83;16.60;;;;;;;1.78;100.00;102370.03;10415374;28;20119;-75
2023/03/03 20:05:51;;;;;;;30.98;16.02;;;;;;;1.81;100.00;102375.53;10425801;28;20053;-75
2023/03/03 20:11:11;;;;;;;27.63;15.45;;;;;;;1.87;100.00;102377.84;10407087;28;20048;-76
2023/03/03 20:16:18;;;;;;;32.58;17.63;;;;;;;1.92;100.00;102379.25;10435759;28;20053;-76
2023/03/03 20:21:39;;;;;;;33.42;19.38;;;;;;;1.97;100.00;102387.50;10387616;28;20034;-76
2023/03/03 20:26:56;;;;;;;29.63;19.15;;;;;;;1.97;100.00;102390.09;10386710;28;20562;-75
2023/03/03 20:32:18;;;;;;;29.42;18.23;;;;;;;2.00;100.00;102393.91;10403575;28;20040;-75
2023/03/03 20:37:22;;;;;;;11.00;5.90;;;;;;;2.20;100.00;102387.34;10418595;28;20626;-76
2023/03/03 20:42:32;;;;;;;10.07;3.50;;;;;;;2.69;100.00;102388.06;10389738;28;20063;-75
2023/03/03 20:47:55;;;;;;;6.07;3.10;;;;;;;2.91;100.00;102393.81;10451613;28;20067;-75
2023/03/03 20:53:12;;;;;;;9.73;3.35;;;;;;;3.01;100.00;102393.06;10439761;28;20140;-76
2023/03/03 20:58:21;;;;;;;5.68;3.28;;;;;;;3.04;100.00;102396.91;10437712;28;20044;-76
2023/03/03 21:03:36;;;;;;;4.53;2.88;;;;;;;3.07;100.00;102399.81;10406755;28;20442;-76
2023/03/03 21:08:39;;;;;;;7.07;3.60;;;;;;;3.11;100.00;102400.13;10433685;28;20040;-76
2023/03/03 21:13:44;;;;;;;5.85;3.13;;;;;;;3.03;100.00;102400.25;10413509;28;20493;-76
2023/03/03 21:19:08;;;;;;;12.18;5.35;;;;;;;2.99;100.00;102407.53;10434478;28;20060;-75
2023/03/03 21:24:12;;;;;;;8.20;4.65;;;;;;;2.93;100.00;102397.47;10450953;28;20374;-75
2023/03/03 21:29:26;;;;;;;8.75;3.47;;;;;;;2.94;100.00;102400.19;10425840;28;20042;-76
2023/03/03 21:34:37;;;;;;;7.95;4.28;;;;;;;2.89;100.00;102406.56;10416528;28;20496;-75
2023/03/03 21:39:39;;;;;;;12.93;4.93;;;;;;;2.94;100.00;102410.53;10443632;28;20037;-75
2023/03/03 21:44:42;;;;;;;7.45;3.78;;;;;;;2.79;100.00;102407.31;10436918;28;20071;-75
2023/03/03 21:49:44;;;;;;;6.97;3.95;;;;;;;2.75;100.00;102400.00;10418275;28;20033;-75
2023/03/03 21:54:45;;;;;;;9.63;4.38;;;;;;;2.81;100.00;102407.44;10409535;28;20083;-71
2023/03/03 21:59:46;;;;;;;6.80;3.38;;;;;;;2.74;100.00;102413.66;10419709;28;20025;-75
2023/03/03 22:04:47;;;;;;;17.95;6.32;;;;;;;2.83;100.00;102405.94;10431084;28;20522;-75
2023/03/03 22:09:47;;;;;;;8.10;3.88;;;;;;;2.90;100.00;102400.63;10437352;28;20391;-76
2023/03/03 22:14:48;;;;;;;14.82;5.15;;;;;;;2.93;100.00;102393.19;10405644;28;20045;-75
2023/03/03 22:19:48;;;;;;;10.10;3.83;;;;;;;3.00;100.00;102389.59;10409350;28;20053;-75
2023/03/03 22:24:49;;;;;;;9.38;4.18;;;;;;;2.95;100.00;102388.19;10411687;28;20119;-76
2023/03/03 22:29:49;;;;;;;11.95;4.65;;;;;;;2.87;100.00;102389.97;10407713;28;20136;-75
2023/03/03 22:34:50;;;;;;;11.52;4.55;;;;;;;2.84;100.00;102394.84;10409238;28;20032;-76
2023/03/03 22:39:50;;;;;;;11.90;5.78;;;;;;;2.85;100.00;102396.66;10416967;28;20128;-76
2023/03/03 22:44:51;;;;;;;12.57;5.55;;;;;;;2.87;100.00;102405.50;10443504;28;20074;-75
2023/03/03 22:49:51;;;;;;;7.63;5.20;;;;;;;2.86;100.00;102400.19;10408410;28;20428;-75
2023/03/03 22:54:52;;;;;;;15.63;6.68;;;;;;;2.90;100.00;102395.47;10432133;28;20072;-75
2023/03/03 22:59:52;;;;;;;11.98;7.30;;;;;;;2.85;100.00;102396.66;10416374;28;20110;-76